Time;durP1;ratioP1;P1;durP2;ratioP2;P2;SDS_P1;SDS_P2;PMS_P1;PMS_P2;Temp;Humidity;BMP_temperature;BMP_pressure;BME280_temperature;BME280_humidity;BME280_pressure;Samples;Min_cycle;Max_cycle;Signal;HPM_P1;HPM_P2
2020/12/11 00:01:59;;;;;;;72.53;39.93;;;;;;;;;;4874605;28;20614;-91
2020/12/11 00:04:21;;;;;;;62.13;38.73;;;;;;;;;;4875902;28;20614;-91
2020/12/11 00:06:43;;;;;;;68.33;38.77;;;;;;;;;;4876634;28;20664;-91
2020/12/11 00:09:06;;;;;;;75.13;43.30;;;-0.50;1.00;;;;;;4875991;28;20656;-90
2020/12/11 00:11:29;;;;;;;67.27;41.43;;;0.40;1.00;;;;;;4876353;28;20614;-90
2020/12/11 00:13:51;;;;;;;77.03;44.40;;;;;;;;;;4877199;28;20822;-92
2020/12/11 00:16:14;;;;;;;79.33;44.30;;;;;;;;;;4876768;28;20673;-92
2020/12/11 00:18:37;;;;;;;97.07;49.07;;;;;;;;;;4858824;28;20274;-92
2020/12/11 00:20:59;;;;;;;90.50;48.43;;;;;;;;;;4876687;28;20607;-92
2020/12/11 00:23:23;;;;;;;90.47;51.07;;;;;;;;;;4876292;28;20684;-92
2020/12/11 00:25:46;;;;;;;99.97;56.73;;;-0.80;1.00;;;;;;4876487;28;21512;-91
2020/12/11 00:28:08;;;;;;;88.67;51.13;;;;;;;;;;4878587;28;21030;-89
2020/12/11 00:30:31;;;;;;;103.60;55.17;;;;;;;;;;4862179;28;20679;-92
2020/12/11 00:32:53;;;;;;;103.30;55.60;;;;;;;;;;4880284;28;20633;-92
2020/12/11 00:35:15;;;;;;;104.73;55.33;;;;;;;;;;4879924;28;20610;-92
2020/12/11 00:37:37;;;;;;;94.27;54.53;;;;;;;;;;4860728;28;20915;-90
2020/12/11 00:39:59;;;;;;;98.77;55.27;;;-1.00;1.00;;;;;;4859282;28;20631;-92
2020/12/11 00:42:22;;;;;;;100.40;54.03;;;-1.10;1.00;;;;;;4879944;28;20669;-89
2020/12/11 00:44:45;;;;;;;100.70;54.43;;;;;;;;;;4879922;28;20661;-87
2020/12/11 00:47:07;;;;;;;85.93;52.33;;;-1.00;1.00;;;;;;4877550;28;21238;-92
2020/12/11 00:49:29;;;;;;;89.13;49.83;;;;;;;;;;4877349;28;20660;-90
2020/12/11 00:51:54;;;;;;;90.57;49.13;;;-0.80;14.60;;;;;;4861266;28;20619;-91
2020/12/11 00:54:18;;;;;;;85.27;48.70;;;;;;;;;;4873586;28;20705;-88
2020/12/11 00:56:40;;;;;;;89.63;51.00;;;;;;;;;;4865254;28;20627;-90
2020/12/11 00:59:03;;;;;;;87.10;49.93;;;-0.50;19.00;;;;;;4879497;28;20602;-92
2020/12/11 01:01:25;;;;;;;88.80;48.63;;;;;;;;;;4877009;28;20680;-93
2020/12/11 01:03:48;;;;;;;79.50;46.50;;;;;;;;;;4879939;28;20660;-93
2020/12/11 01:06:10;;;;;;;80.80;45.60;;;;;;;;;;4861415;28;20628;-93
2020/12/11 01:08:32;;;;;;;79.67;45.73;;;-0.10;36.40;;;;;;4879930;28;20607;-93
2020/12/11 01:10:54;;;;;;;79.33;47.17;;;;;;;;;;4879282;28;20606;-93
2020/12/11 01:13:17;;;;;;;78.17;44.37;;;;;;;;;;4879648;28;20618;-91
2020/12/11 01:15:39;;;;;;;82.83;45.67;;;0.00;24.00;;;;;;4880444;28;20615;-90
2020/12/11 01:18:02;;;;;;;78.03;46.07;;;;;;;;;;4879883;28;20859;-89
2020/12/11 01:20:24;;;;;;;79.57;46.70;;;0.20;29.80;;;;;;4879105;28;20626;-91
2020/12/11 01:22:46;;;;;;;86.03;46.50;;;;;;;;;;4861705;28;20670;-92
2020/12/11 01:25:08;;;;;;;81.20;45.47;;;0.20;20.00;;;;;;4879042;28;20602;-89
2020/12/11 01:27:31;;;;;;;69.67;42.43;;;;;;;;;;4878656;28;20614;-87
2020/12/11 01:29:53;;;;;;;73.23;43.57;;;-0.30;3.70;;;;;;4879433;28;20607;-93
2020/12/11 01:32:15;;;;;;;78.27;43.53;;;0.20;12.90;;;;;;4878977;28;20243;-91
2020/12/11 01:34:38;;;;;;;70.17;42.83;;;;;;;;;;4877858;28;21191;-88
2020/12/11 01:37:04;;;;;;;74.07;42.70;;;0.30;2.50;;;;;;4878434;28;20633;-92
2020/12/11 01:39:26;;;;;;;74.10;43.70;;;;;;;;;;4878642;28;20615;-91
2020/12/11 01:41:50;;;;;;;67.80;42.20;;;;;;;;;;4878647;28;20606;-85
2020/12/11 01:44:13;;;;;;;76.60;45.27;;;;;;;;;;4878448;28;20665;-92
2020/12/11 01:46:39;;;;;;;71.83;43.63;;;-0.10;1.00;;;;;;4878496;28;21016;-90
2020/12/11 01:49:02;;;;;;;73.40;43.90;;;0.40;1.00;;;;;;4876835;28;21171;-89
2020/12/11 01:51:24;;;;;;;67.13;42.67;;;;;;;;;;4878761;28;20194;-91
2020/12/11 01:53:48;;;;;;;67.83;40.70;;;0.50;1.00;;;;;;4878945;28;20610;-93
2020/12/11 01:59:51;;;;;;;68.23;39.77;;;0.50;1.00;;;;;;4871657;28;20239;-91
2020/12/11 02:02:14;;;;;;;63.33;40.17;;;0.60;1.00;;;;;;4875970;28;20622;-92
2020/12/11 02:04:38;;;;;;;65.00;39.53;;;0.70;1.00;;;;;;4879046;28;20668;-93
2020/12/11 02:07:01;;;;;;;63.90;39.37;;;;;;;;;;4878808;28;20606;-92
2020/12/11 02:09:24;;;;;;;64.93;39.83;;;0.70;1.00;;;;;;4878493;28;20610;-92
2020/12/11 02:11:50;;;;;;;66.13;40.10;;;0.70;1.00;;;;;;4878852;28;20618;-92
2020/12/11 02:14:12;;;;;;;67.80;41.27;;;0.80;1.00;;;;;;4878494;28;20603;-93
2020/12/11 02:16:34;;;;;;;61.77;39.00;;;;;;;;;;4878475;28;20231;-91
2020/12/11 02:18:56;;;;;;;60.90;38.63;;;0.70;1.00;;;;;;4878953;28;20642;-92
2020/12/11 02:21:19;;;;;;;65.87;39.53;;;0.80;1.00;;;;;;4878575;28;20254;-90
2020/12/11 02:23:43;;;;;;;71.50;41.43;;;0.70;1.00;;;;;;4878745;28;20618;-92
2020/12/11 02:26:05;;;;;;;63.80;38.33;;;0.70;1.00;;;;;;4878450;28;20823;-91
2020/12/11 02:28:31;;;;;;;66.93;39.63;;;0.70;1.00;;;;;;4877103;28;20614;-89
2020/12/11 02:30:57;;;;;;;71.33;40.67;;;0.80;1.00;;;;;;4878887;28;20190;-90
2020/12/11 02:33:19;;;;;;;65.27;39.33;;;;;;;;;;4858924;28;20206;-91
2020/12/11 02:35:41;;;;;;;64.30;39.13;;;0.80;1.00;;;;;;4877410;28;20637;-91
2020/12/11 02:38:03;;;;;;;68.50;41.27;;;0.70;1.00;;;;;;4877884;28;20701;-91
2020/12/11 02:40:26;;;;;;;64.80;41.03;;;0.60;1.00;;;;;;4877475;28;20185;-89
2020/12/11 02:42:49;;;;;;;63.03;38.67;;;;;;;;;;4877778;28;20733;-92
2020/12/11 02:45:11;;;;;;;57.73;38.93;;;;;;;;;;4877814;28;20599;-91
2020/12/11 02:47:33;;;;;;;60.77;38.47;;;;;;;;;;4877489;28;20700;-91
2020/12/11 02:49:55;;;;;;;66.33;38.87;;;;;;;;;;4876890;28;20614;-89
2020/12/11 02:52:18;;;;;;;66.07;39.63;;;;;;;;;;4877363;28;21138;-84
2020/12/11 02:54:43;;;;;;;65.70;40.17;;;;;;;;;;4877623;28;21004;-90
2020/12/11 02:57:06;;;;;;;60.23;35.93;;;0.40;1.00;;;;;;4877353;28;20668;-92
2020/12/11 02:59:28;;;;;;;65.37;38.17;;;;;;;;;;4872219;28;21035;-93
2020/12/11 03:01:50;;;;;;;63.13;38.33;;;;;;;;;;4875254;28;20668;-92
2020/12/11 03:04:12;;;;;;;68.33;40.63;;;;;;;;;;4875479;28;20665;-93
2020/12/11 03:06:35;;;;;;;65.93;39.60;;;;;;;;;;4876882;28;20603;-93
2020/12/11 03:08:58;;;;;;;66.00;39.90;;;0.20;1.00;;;;;;4877306;28;21252;-92
2020/12/11 03:11:20;;;;;;;61.07;38.47;;;;;;;;;;4876034;28;21155;-87
2020/12/11 03:13:43;;;;;;;60.67;36.67;;;0.20;1.00;;;;;;4877231;28;20657;-93
2020/12/11 03:16:08;;;;;;;60.20;37.07;;;;;;;;;;4859362;28;20681;-93
2020/12/11 03:18:30;;;;;;;62.40;36.53;;;;;;;;;;4870720;28;20700;-93
2020/12/11 03:20:53;;;;;;;59.63;36.87;;;;;;;;;;4878115;28;20672;-90
2020/12/11 03:23:15;;;;;;;58.03;36.83;;;;;;;;;;4877253;28;21236;-88
2020/12/11 03:25:37;;;;;;;60.40;36.87;;;1.80;1.00;;;;;;4876864;28;20618;-94
2020/12/11 03:27:59;;;;;;;61.67;37.97;;;;;;;;;;4876871;28;20645;-92
2020/12/11 03:30:22;;;;;;;62.37;37.87;;;0.20;1.00;;;;;;4876896;28;20614;-92
2020/12/11 03:32:44;;;;;;;62.70;38.63;;;;;;;;;;4876691;28;20595;-91
2020/12/11 03:35:07;;;;;;;64.50;39.13;;;;;;;;;;4876703;28;20622;-86
2020/12/11 03:37:29;;;;;;;68.33;39.23;;;;;;;;;;4876611;28;21264;-92
2020/12/11 03:39:51;;;;;;;57.97;36.73;;;;;;;;;;4878034;28;20599;-90
2020/12/11 03:42:13;;;;;;;63.63;39.27;;;;;;;;;;4877862;28;20618;-93
2020/12/11 03:44:36;;;;;;;62.50;37.63;;;;;;;;;;4879399;28;20602;-90
2020/12/11 03:46:58;;;;;;;61.47;38.27;;;0.30;1.00;;;;;;4880231;28;20642;-92
2020/12/11 03:49:21;;;;;;;67.37;39.53;;;;;;;;;;4882360;28;20685;-92
2020/12/11 03:51:43;;;;;;;63.57;37.87;;;;;;;;;;4879797;28;20606;-91
2020/12/11 03:54:05;;;;;;;61.70;39.70;;;;;;;;;;4878261;28;20648;-83
2020/12/11 03:56:27;;;;;;;64.87;39.23;;;;;;;;;;4859389;28;21121;-94
2020/12/11 03:58:50;;;;;;;67.00;40.83;;;;;;;;;;4877274;28;21009;-96
2020/12/11 04:01:13;;;;;;;67.40;41.63;;;0.30;1.00;;;;;;4874088;28;20656;-95
2020/12/11 04:03:37;;;;;;;67.43;42.00;;;0.20;1.00;;;;;;4876573;28;20615;-95
2020/12/11 04:05:59;;;;;;;71.30;43.17;;;;;;;;;;4876436;28;20704;-93
2020/12/11 04:08:21;;;;;;;70.03;43.03;;;;;;;;;;4876365;28;20618;-90
2020/12/11 04:10:43;;;;;;;75.73;44.67;;;;;;;;;;4876824;28;20611;-93
2020/12/11 04:13:06;;;;;;;78.70;45.50;;;;;;;;;;4875762;28;21223;-95
2020/12/11 04:15:30;;;;;;;75.33;47.40;;;0.20;1.00;;;;;;4873411;28;20606;-91
2020/12/11 04:17:52;;;;;;;83.40;48.47;;;;;;;;;;4875615;28;20736;-88
2020/12/11 04:20:15;;;;;;;71.43;43.23;;;0.20;1.00;;;;;;4875272;28;20595;-90
2020/12/11 04:22:38;;;;;;;69.83;41.13;;;;;;;;;;4876939;28;21242;-89
2020/12/11 04:25:00;;;;;;;66.77;41.93;;;;;;;;;;4877093;28;20602;-92
2020/12/11 04:27:24;;;;;;;64.93;38.23;;;0.10;1.00;;;;;;4875679;28;20622;-92
2020/12/11 04:29:46;;;;;;;61.73;37.33;;;;;;;;;;4876721;28;20595;-95
2020/12/11 04:32:08;;;;;;;63.60;37.97;;;;;;;;;;4876024;28;21526;-88
2020/12/11 04:34:30;;;;;;;58.27;34.03;;;;;;;;;;4876144;28;20611;-91
2020/12/11 04:36:54;;;;;;;56.60;34.17;;;-0.10;1.00;;;;;;4876426;28;20668;-89
2020/12/11 04:39:17;;;;;;;61.03;33.27;;;;;;;;;;4874894;28;20711;-87
2020/12/11 04:41:44;;;;;;;56.33;32.27;;;-0.10;1.00;;;;;;4876219;28;21004;-89
2020/12/11 04:44:08;;;;;;;53.67;30.43;;;-0.30;1.00;;;;;;4876156;28;21008;-87
2020/12/11 04:46:30;;;;;;;50.70;30.33;;;;;;;;;;4849288;28;20651;-94
2020/12/11 04:48:55;;;;;;;51.23;29.27;;;-0.30;1.00;;;;;;4857467;28;20616;-94
2020/12/11 04:51:18;;;;;;;49.93;29.97;;;-0.40;1.00;;;;;;4857680;28;20766;-94
2020/12/11 04:53:41;;;;;;;53.17;30.93;;;-0.50;1.00;;;;;;4857536;28;20661;-92
2020/12/11 04:56:05;;;;;;;52.63;31.63;;;-0.50;1.00;;;;;;4857402;28;20661;-92
2020/12/11 04:58:27;;;;;;;47.03;29.60;;;;;;;;;;4840003;28;20654;-93
2020/12/11 05:00:49;;;;;;;51.33;30.30;;;-0.60;1.00;;;;;;4855722;28;21230;-89
2020/12/11 05:03:13;;;;;;;50.20;27.80;;;;;;;;;;4856917;28;20601;-94
2020/12/11 05:05:35;;;;;;;57.70;32.83;;;;;;;;;;4857302;28;20685;-94
2020/12/11 05:07:57;;;;;;;54.07;32.17;;;;;;;;;;4857425;28;20665;-93
2020/12/11 05:10:20;;;;;;;57.03;32.50;;;-0.90;1.00;;;;;;4856508;28;20619;-93
2020/12/11 05:12:42;;;;;;;54.37;33.13;;;;;;;;;;4858189;28;20608;-93
2020/12/11 05:15:06;;;;;;;57.03;30.97;;;-1.00;1.00;;;;;;4860015;28;21221;-89
2020/12/11 05:17:30;;;;;;;58.97;32.40;;;-1.00;1.00;;;;;;4857124;28;20631;-94
2020/12/11 05:19:53;;;;;;;58.20;32.30;;;-1.10;1.00;;;;;;4860242;28;20651;-93
2020/12/11 05:22:15;;;;;;;55.50;31.17;;;;;;;;;;4860280;28;21002;-91
2020/12/11 05:24:44;;;;;;;63.50;32.87;;;-1.10;1.00;;;;;;4842580;28;20742;-93
2020/12/11 05:27:30;;;;;;;59.50;31.80;;;-1.20;1.00;;;;;;4833757;28;20611;-93
2020/12/11 05:29:52;;;;;;;60.60;31.27;;;-1.20;1.00;;;;;;4839687;28;21003;-92
2020/12/11 05:32:14;;;;;;;56.77;31.80;;;;;;;;;;4859792;28;20612;-93
2020/12/11 05:34:37;;;;;;;55.27;30.37;;;-1.20;1.00;;;;;;4859795;28;20649;-94
2020/12/11 05:36:59;;;;;;;55.17;30.77;;;;;;;;;;4860109;28;20612;-92
2020/12/11 05:39:32;;;;;;;56.03;30.63;;;-1.20;9.50;;;;;;4858262;28;20681;-92
2020/12/11 05:41:55;;;;;;;62.03;33.07;;;;;;;;;;4859774;28;20630;-92
2020/12/11 05:44:24;;;;;;;56.90;31.50;;;-1.20;16.80;;;;;;4859631;28;21027;-91
2020/12/11 05:46:47;;;;;;;57.33;31.57;;;;;;;;;;4851178;28;20647;-92
2020/12/11 05:49:22;;;;;;;60.60;32.27;;;-1.20;1.00;;;;;;4878591;28;20590;-91
2020/12/11 05:51:45;;;;;;;52.40;28.80;;;-1.30;5.10;;;;;;4852675;28;20650;-92
2020/12/11 05:54:08;;;;;;;55.90;29.77;;;;;;;;;;4878701;28;21031;-90
2020/12/11 05:56:31;;;;;;;54.30;29.63;;;-1.40;1.00;;;;;;4873611;28;20632;-93
2020/12/11 05:58:53;;;;;;;52.80;28.77;;;-1.50;1.00;;;;;;4878802;28;20646;-94
2020/12/11 06:01:19;;;;;;;58.43;31.30;;;-1.60;1.00;;;;;;4875332;28;20672;-88
2020/12/11 06:03:41;;;;;;;57.73;32.00;;;;;;;;;;4878200;28;20696;-91
2020/12/11 06:06:06;;;;;;;53.97;29.33;;;-1.90;1.00;;;;;;4878356;28;20672;-90
2020/12/11 06:08:28;;;;;;;54.07;29.80;;;-1.90;1.00;;;;;;4878614;28;21029;-86
2020/12/11 06:10:51;;;;;;;50.83;27.27;;;;;;;;;;4861155;28;20658;-85
2020/12/11 06:13:13;;;;;;;53.93;28.77;;;;;;;;;;4860881;28;20620;-93
2020/12/11 06:15:38;;;;;;;64.07;31.13;;;-1.80;1.00;;;;;;4878740;28;20611;-93
2020/12/11 06:18:10;;;;;;;58.70;31.37;;;-2.10;1.00;;;;;;4878751;28;20615;-91
2020/12/11 06:20:33;;;;;;;59.87;32.07;;;-2.20;1.00;;;;;;4877647;28;20907;-94
2020/12/11 06:23:20;;;;;;;59.93;33.00;;;-1.70;1.00;;;;;;4878479;28;20607;-88
2020/12/11 06:25:50;;;;;;;64.93;33.10;;;-2.30;1.00;;;;;;4871977;28;20675;-93
2020/12/11 06:28:12;;;;;;;72.60;37.30;;;;;;;;;;4878109;28;20610;-91
2020/12/11 06:30:34;;;;;;;68.70;36.50;;;;;;;;;;4879133;28;21001;-92
2020/12/11 06:32:58;;;;;;;75.73;40.27;;;-2.50;1.00;;;;;;4878835;28;21016;-95
2020/12/11 06:35:21;;;;;;;78.27;40.33;;;-2.60;1.00;;;;;;4877602;28;20637;-92
2020/12/11 06:37:43;;;;;;;79.40;41.30;;;;;;;;;;4878496;28;20639;-93
2020/12/11 06:40:05;;;;;;;92.23;43.57;;;;;;;;;;4877871;28;20650;-91
2020/12/11 06:42:46;;;;;;;73.63;39.80;;;-1.40;1.00;;;;;;4860088;28;20611;-94
2020/12/11 06:45:20;;;;;;;195.00;69.93;;;-2.70;1.00;;;;;;4875644;28;20621;-93
2020/12/11 06:47:51;;;;;;;126.60;55.23;;;-2.80;1.00;;;;;;4877189;28;21191;-93
2020/12/11 06:50:13;;;;;;;102.73;46.03;;;;;;;;;;4860355;28;21025;-94
2020/12/11 06:52:36;;;;;;;113.63;53.17;;;-2.70;1.00;;;;;;4877650;28;21008;-91
2020/12/11 06:55:01;;;;;;;119.37;53.50;;;;;;;;;;4874825;28;20607;-93
2020/12/11 06:57:39;;;;;;;112.67;47.63;;;-2.60;1.00;;;;;;4877424;28;20618;-92
2020/12/11 07:00:31;;;;;;;132.30;45.53;;;-2.60;1.00;;;;;;4874734;28;20642;-94
2020/12/11 07:03:18;;;;;;;237.17;58.83;;;-2.70;1.00;;;;;;4855545;28;20632;-93
2020/12/11 07:05:42;;;;;;;241.47;69.90;;;;;;;;;;4859508;28;20693;-94
2020/12/11 07:08:11;;;;;;;333.60;79.97;;;-2.70;1.00;;;;;;4878695;28;20591;-92
2020/12/11 07:10:33;;;;;;;269.00;78.37;;;;;;;;;;4860869;28;20640;-93
2020/12/11 07:12:56;;;;;;;177.90;69.87;;;;;;;;;;4860614;28;20619;-93
2020/12/11 07:15:19;;;;;;;183.37;79.20;;;-2.70;1.00;;;;;;4844431;28;20640;-90
2020/12/11 07:17:42;;;;;;;171.03;73.43;;;-2.70;2.90;;;;;;4878645;28;20587;-93
2020/12/11 07:20:05;;;;;;;172.97;76.67;;;;;;;;;;4877865;28;20693;-89
2020/12/11 07:22:27;;;;;;;154.40;70.60;;;;;;;;;;4870687;28;20653;-89
2020/12/11 07:24:50;;;;;;;162.27;69.33;;;-2.50;19.30;;;;;;4878243;28;20664;-93
2020/12/11 07:27:12;;;;;;;147.77;65.20;;;;;;;;;;4877911;28;20610;-92
2020/12/11 07:29:34;;;;;;;125.73;61.53;;;;;;;;;;4877036;28;20607;-86
2020/12/11 07:31:57;;;;;;;129.07;54.73;;;;;;;;;;4878186;28;20660;-89
2020/12/11 07:34:22;;;;;;;81.30;43.87;;;-2.00;39.60;;;;;;4877336;28;20610;-87
2020/12/11 07:36:45;;;;;;;79.47;43.13;;;-1.80;57.50;;;;;;4858952;28;20681;-85
2020/12/11 07:39:13;;;;;;;78.83;42.77;;;-1.70;46.40;;;;;;4877335;28;21203;-86
2020/12/11 07:41:40;;;;;;;90.83;47.17;;;-1.50;49.80;;;;;;4874027;28;20641;-89
2020/12/11 07:44:02;;;;;;;85.33;45.47;;;;;;;;;;4875640;28;20618;-90
2020/12/11 07:46:25;;;;;;;84.13;45.20;;;;;;;;;;4877354;28;20650;-91
2020/12/11 07:48:51;;;;;;;95.90;46.93;;;-1.10;69.90;;;;;;4860481;28;20617;-91
2020/12/11 07:51:13;;;;;;;93.07;47.07;;;;;;;;;;4875939;28;20610;-90
2020/12/11 07:53:35;;;;;;;88.63;46.40;;;;;;;;;;4877818;28;20602;-91
2020/12/11 07:55:58;;;;;;;85.33;46.57;;;;;;;;;;4877425;28;20611;-90
2020/12/11 07:58:25;;;;;;;86.20;46.90;;;-0.60;52.90;;;;;;4876833;28;21074;-90
2020/12/11 08:00:47;;;;;;;89.83;43.53;;;;;;;;;;4876367;28;20634;-88
2020/12/11 08:03:10;;;;;;;79.40;42.63;;;;;;;;;;4860019;28;20685;-90
2020/12/11 08:05:35;;;;;;;75.43;42.57;;;-0.30;59.20;;;;;;4877308;28;20611;-82
2020/12/11 08:07:57;;;;;;;81.13;43.20;;;;;;;;;;4860731;28;20653;-88
2020/12/11 08:10:24;;;;;;;73.80;40.23;;;-0.20;47.60;;;;;;4877325;28;20622;-90
2020/12/11 08:12:49;;;;;;;56.57;31.23;;;0.90;41.70;;;;;;4877838;28;20684;-88
2020/12/11 08:15:27;;;;;;;52.63;29.33;;;0.20;24.00;;;;;;4877153;28;20607;-92
2020/12/11 08:17:49;;;;;;;48.00;28.13;;;;;;;;;;4868191;28;20606;-86
2020/12/11 08:20:12;;;;;;;49.13;26.97;;;;;;;;;;4859245;28;21098;-86
2020/12/11 08:22:35;;;;;;;48.17;28.27;;;0.70;1.00;;;;;;4873082;28;20673;-83
2020/12/11 08:24:58;;;;;;;48.07;28.03;;;0.90;1.00;;;;;;4873105;28;20623;-82
2020/12/11 08:27:21;;;;;;;42.80;25.60;;;;;;;;;;4839270;28;20633;-85
2020/12/11 08:30:03;;;;;;;45.50;24.60;;;1.20;1.00;;;;;;4848520;28;21251;-81
2020/12/11 08:32:27;;;;;;;42.73;24.70;;;1.30;1.00;;;;;;4871504;28;21242;-82
2020/12/11 08:34:49;;;;;;;40.27;23.90;;;;;;;;;;4840551;28;20198;-81
2020/12/11 08:37:17;;;;;;;39.27;23.53;;;1.70;1.00;;;;;;4840165;28;20239;-86
2020/12/11 08:39:39;;;;;;;38.57;24.13;;;;;;;;;;4838025;28;20218;-82
2020/12/11 08:42:18;;;;;;;39.30;23.90;;;2.10;1.00;;;;;;4854119;28;20197;-87
2020/12/11 08:50:26;;;;;;;37.20;23.20;;;2.70;1.00;;;;;;4843582;28;20198;-88
2020/12/11 08:52:49;;;;;;;37.13;23.23;;;3.00;1.00;;;;;;4843493;28;20195;-88
2020/12/11 08:55:12;;;;;;;35.30;22.20;;;;;;;;;;4860089;28;20232;-87
2020/12/11 08:57:35;;;;;;;32.17;21.47;;;;;;;;;;4857779;28;20224;-86
2020/12/11 08:59:57;;;;;;;34.70;20.97;;;;;;;;;;4845523;28;20218;-89
2020/12/11 09:02:20;;;;;;;32.23;19.97;;;;;;;;;;4859437;28;20273;-87
2020/12/11 09:04:43;;;;;;;32.80;21.63;;;3.70;1.00;;;;;;4845698;28;20715;-90
2020/12/11 09:07:05;;;;;;;32.57;20.40;;;;;;;;;;4845804;28;20234;-91
2020/12/11 09:09:28;;;;;;;30.00;21.47;;;;;;;;;;4860955;28;20201;-93
2020/12/11 09:11:50;;;;;;;30.23;20.77;;;;;;;;;;4867182;28;20193;-92
2020/12/11 09:14:13;;;;;;;30.43;20.53;;;;;;;;;;4881027;28;20619;-88
2020/12/11 09:16:35;;;;;;;30.40;20.37;;;4.40;1.00;;;;;;4878570;28;20193;-90
2020/12/11 09:18:59;;;;;;;30.23;20.37;;;;;;;;;;4870768;28;20267;-88
2020/12/11 09:21:21;;;;;;;26.80;19.23;;;4.70;99.90;;;;;;4853279;28;20193;-87
2020/12/11 09:23:44;;;;;;;27.40;18.73;;;;;;;;;;4844821;28;20191;-88
2020/12/11 09:26:06;;;;;;;28.33;18.90;;;;;;;;;;4846687;28;20190;-86
2020/12/11 09:28:28;;;;;;;36.57;21.57;;;;;;;;;;4860360;28;20206;-90
2020/12/11 09:30:51;;;;;;;37.67;21.50;;;;;;;;;;4851985;28;20194;-89
2020/12/11 09:33:16;;;;;;;31.10;19.63;;;;;;;;;;4845366;28;20222;-87
2020/12/11 09:35:39;;;;;;;24.33;17.77;;;;;;;;;;4867353;28;20205;-89
2020/12/11 09:38:02;;;;;;;22.27;16.10;;;10.80;1.00;;;;;;4848560;28;20265;-89
2020/12/11 09:40:33;;;;;;;23.33;15.43;;;12.20;1.00;;;;;;4843998;28;20226;-88
2020/12/11 09:45:38;;;;;;;18.37;12.30;;;;;;;;;;4849633;28;20194;-87
2020/12/11 09:48:12;;;;;;;11.50;10.00;;;;;;;;;;4844617;28;20626;-88
2020/12/11 09:50:41;;;;;;;13.13;9.87;;;;;;;;;;4835679;28;20219;-87
2020/12/11 09:53:13;;;;;;;9.40;8.03;;;15.90;99.90;;;;;;4873760;28;20198;-89
2020/12/11 09:55:43;;;;;;;10.83;8.73;;;;;;;;;;4839407;28;20597;-87
2020/12/11 09:58:05;;;;;;;9.47;8.47;;;;;;;;;;4839547;28;20245;-85
2020/12/11 10:00:28;;;;;;;21.60;13.53;;;;;;;;;;4851687;28;20198;-89
2020/12/11 10:02:57;;;;;;;12.07;10.07;;;;;;;;;;4857586;28;20213;-89
2020/12/11 10:05:19;;;;;;;13.93;10.70;;;;;;;;;;4878891;28;20659;-88
2020/12/11 10:07:42;;;;;;;14.60;12.00;;;;;;;;;;4845572;28;20190;-89
2020/12/11 10:10:07;;;;;;;15.83;12.03;;;8.70;1.00;;;;;;4855477;28;20230;-83
2020/12/11 10:12:31;;;;;;;17.47;13.50;;;;;;;;;;4859149;28;20185;-88
2020/12/11 10:14:57;;;;;;;17.17;13.93;;;;;;;;;;4844087;28;20607;-87
2020/12/11 10:17:20;;;;;;;19.87;15.50;;;;;;;;;;4860315;28;20194;-88
2020/12/11 10:19:42;;;;;;;19.70;15.00;;;;;;;;;;4842092;28;20195;-89
2020/12/11 10:22:04;;;;;;;20.27;16.30;;;;;;;;;;4859337;28;20202;-83
2020/12/11 10:24:27;;;;;;;24.23;16.80;;;;;;;;;;4859494;28;20659;-88
2020/12/11 10:26:50;;;;;;;21.83;16.63;;;6.60;1.00;;;;;;4878548;28;20193;-87
2020/12/11 10:29:12;;;;;;;22.33;16.20;;;;;;;;;;4878408;28;20583;-87
2020/12/11 10:31:35;;;;;;;22.97;17.70;;;;;;;;;;4842715;28;20229;-87
2020/12/11 10:33:57;;;;;;;23.67;17.93;;;;;;;;;;4850876;28;20222;-84
2020/12/11 10:36:21;;;;;;;23.73;17.07;;;;;;;;;;4868130;28;20199;-84
2020/12/11 10:38:43;;;;;;;23.10;17.93;;;;;;;;;;4848578;28;20218;-84
2020/12/11 10:41:05;;;;;;;23.77;18.37;;;;;;;;;;4856724;28;20672;-86
2020/12/11 10:43:28;;;;;;;25.70;18.70;;;6.50;1.00;;;;;;4857779;28;20267;-85
2020/12/11 10:45:51;;;;;;;25.13;17.93;;;;;;;;;;4836789;28;20700;-87
2020/12/11 10:48:13;;;;;;;25.60;17.93;;;;;;;;;;4867191;28;20244;-86
2020/12/11 10:50:35;;;;;;;23.87;17.53;;;;;;;;;;4859869;28;20221;-86
2020/12/11 10:52:58;;;;;;;22.30;17.37;;;;;;;;;;4859301;28;20194;-85
2020/12/11 10:55:20;;;;;;;25.77;18.63;;;;;;;;;;4857394;28;20198;-85
2020/12/11 10:57:43;;;;;;;26.17;17.60;;;;;;;;;;4857765;28;20198;-86
2020/12/11 11:00:06;;;;;;;24.13;18.20;;;6.60;1.00;;;;;;4858687;28;20198;-86
2020/12/11 11:02:28;;;;;;;26.80;20.20;;;;;;;;;;4839562;28;20257;-84
2020/12/11 11:04:51;;;;;;;29.67;21.10;;;;;;;;;;4841291;28;20198;-85
2020/12/11 11:07:15;;;;;;;28.20;20.80;;;;;;;;;;4873928;28;20193;-83
2020/12/11 11:09:42;;;;;;;30.37;20.90;;;;;;;;;;4858522;28;20608;-83
2020/12/11 11:12:17;;;;;;;27.30;19.97;;;;;;;;;;4864559;28;20192;-83
2020/12/11 11:20:15;;;;;;;32.73;21.40;;;5.30;99.90;;;;;;4857724;28;20193;-84
2020/12/11 11:22:45;;;;;;;32.27;21.07;;;;;;;;;;4853107;28;20194;-83
2020/12/11 11:27:58;;;;;;;31.27;20.97;;;;;;;;;;4869504;28;20271;-85
2020/12/11 11:30:21;;;;;;;30.80;20.47;;;;;;;;;;4841212;28;20245;-85
2020/12/11 11:32:44;;;;;;;29.67;20.27;;;5.10;1.00;;;;;;4857168;28;20738;-84
2020/12/11 11:35:07;;;;;;;32.97;22.00;;;;;;;;;;4873884;28;20231;-81
2020/12/11 11:37:29;;;;;;;33.00;22.30;;;;;;;;;;4855737;28;20221;-84
2020/12/11 11:39:51;;;;;;;27.77;18.83;;;;;;;;;;4857399;28;20233;-83
2020/12/11 11:42:14;;;;;;;28.97;19.73;;;;;;;;;;4873599;28;20232;-82
2020/12/11 11:44:49;;;;;;;26.43;19.37;;;;;;;;;;4850361;28;20198;-82
2020/12/11 11:47:11;;;;;;;29.27;19.53;;;;;;;;;;4856508;28;20680;-84
2020/12/11 11:49:37;;;;;;;22.07;15.83;;;13.70;1.00;;;;;;4874880;28;20239;-84
2020/12/11 11:52:13;;;;;;;13.83;12.37;;;;;;;;;;4857011;28;20245;-85
2020/12/11 11:54:36;;;;;;;15.70;11.60;;;;;;;;;;4837492;28;20190;-83
2020/12/11 11:57:01;;;;;;;11.33;9.23;;;20.80;99.90;;;;;;4867189;28;20205;-82
2020/12/11 11:59:25;;;;;;;10.23;7.60;;;;;;;;;;4856299;28;20201;-85
2020/12/11 12:01:47;;;;;;;7.60;6.20;;;;;;;;;;4854419;28;20632;-82
2020/12/11 12:04:11;;;;;;;5.80;4.53;;;;;;;;;;4857350;28;20260;-84
2020/12/11 12:06:34;;;;;;;6.07;3.70;;;25.50;99.90;;;;;;4856798;28;20202;-82
2020/12/11 12:08:56;;;;;;;3.90;2.50;;;;;;;;;;4839226;28;20226;-83
2020/12/11 12:11:18;;;;;;;5.47;2.50;;;;;;;;;;4874031;28;20209;-80
2020/12/11 12:13:40;;;;;;;1.03;0.90;;;;;;;;;;4875325;28;20647;-85
2020/12/11 12:16:03;;;;;;;3.07;1.53;;;;;;;;;;4857947;28;20271;-85
2020/12/11 12:18:25;;;;;;;6.00;2.43;;;;;;;;;;4873742;28;20721;-85
2020/12/11 12:20:52;;;;;;;8.17;3.10;;;;;;;;;;4840889;28;20257;-85
2020/12/11 12:24:03;;;;;;;2.93;1.50;;;23.80;99.90;;;;;;4855615;28;20787;-85
2020/12/11 12:28:57;;;;;;;5.80;3.53;;;;;;;;;;4777928;28;20245;-83
2020/12/11 12:31:24;;;;;;;4.47;3.47;;;;;;;;;;4839171;28;20653;-83
2020/12/11 12:36:52;;;;;;;6.03;5.27;;;;;;;;;;4870185;28;20181;-84
2020/12/11 12:39:50;;;;;;;8.07;6.27;;;12.10;99.90;;;;;;4873344;28;20242;-83
2020/12/11 12:45:04;;;;;;;13.27;10.03;;;9.80;99.90;;;;;;4857005;28;20185;-86
2020/12/11 12:47:27;;;;;;;14.60;11.30;;;;;;;;;;4819719;28;20286;-86
2020/12/11 12:49:49;;;;;;;14.40;12.07;;;;;;;;;;4821170;28;20606;-84
2020/12/11 12:52:11;;;;;;;13.87;12.03;;;;;;;;;;4837419;28;20199;-85
2020/12/11 12:54:34;;;;;;;21.27;15.47;;;8.00;99.90;;;;;;4821163;28;20195;-84
2020/12/11 12:56:58;;;;;;;19.07;14.80;;;;;;;;;;4856204;28;20248;-85
2020/12/11 12:59:31;;;;;;;18.90;14.77;;;;;;;;;;4818936;28;20199;-85
2020/12/11 13:02:09;;;;;;;21.50;16.53;;;;;;;;;;4850284;28;20237;-86
2020/12/11 13:04:34;;;;;;;22.03;16.70;;;;;;;;;;4816418;28;20254;-84
2020/12/11 13:06:56;;;;;;;21.93;17.07;;;;;;;;;;4838284;28;20198;-85
2020/12/11 13:09:19;;;;;;;25.40;18.43;;;;;;;;;;4823404;28;20203;-84
2020/12/11 13:11:42;;;;;;;23.90;18.10;;;6.30;1.00;;;;;;4841440;28;20589;-85
2020/12/11 13:14:04;;;;;;;23.77;18.37;;;;;;;;;;4825829;28;20770;-85
2020/12/11 13:16:26;;;;;;;25.90;19.90;;;;;;;;;;4838262;28;20620;-86
2020/12/11 13:18:49;;;;;;;27.83;19.37;;;;;;;;;;4821766;28;20234;-85
2020/12/11 13:21:19;;;;;;;29.23;20.97;;;;;;;;;;4838975;28;20190;-85
2020/12/11 13:26:42;;;;;;;30.17;21.57;;;4.90;99.90;;;;;;4810994;28;20600;-87
2020/12/11 13:29:14;;;;;;;33.40;21.77;;;4.60;99.90;;;;;;4838305;28;20203;-86
2020/12/11 13:31:45;;;;;;;32.50;21.73;;;4.40;99.90;;;;;;4839028;28;20206;-89
2020/12/11 13:34:12;;;;;;;31.23;21.67;;;4.30;1.00;;;;;;4824770;28;20192;-86
2020/12/11 13:36:35;;;;;;;33.43;21.03;;;;;;;;;;4825655;28;20196;-87
2020/12/11 13:38:57;;;;;;;32.60;21.03;;;;;;;;;;4841515;28;20215;-88
2020/12/11 13:41:19;;;;;;;31.67;20.43;;;;;;;;;;4858732;28;20918;-89
2020/12/11 13:43:41;;;;;;;37.60;22.50;;;;;;;;;;4843116;28;20222;-89
2020/12/11 13:46:05;;;;;;;34.97;22.30;;;3.70;1.00;;;;;;4843243;28;20226;-89
2020/12/11 13:48:27;;;;;;;32.63;21.53;;;;;;;;;;4858008;28;20240;-88
2020/12/11 13:50:51;;;;;;;31.10;20.87;;;;;;;;;;4839814;28;20280;-87
2020/12/11 13:53:13;;;;;;;27.87;18.37;;;;;;;;;;4828377;28;20191;-89